Time;durP1;ratioP1;P1;durP2;ratioP2;P2;SDS_P1;SDS_P2;PMS_P1;PMS_P2;Temp;Humidity;BMP_temperature;BMP_pressure;BME280_temperature;BME280_humidity;BME280_pressure;Samples;Min_cycle;Max_cycle;Signal;HPM_P1;HPM_P2
2023/12/15 00:00:39;;;;;;;1.48;0.80;;;;;;;7.23;72.72;94420.84;4182542;28;20048;-67
2023/12/15 00:02:41;;;;;;;1.55;0.85;;;;;;;7.26;72.30;94423.97;4170646;28;20488;-67
2023/12/15 00:04:43;;;;;;;1.45;0.70;;;;;;;7.32;72.52;94420.78;4170580;28;20053;-68
2023/12/15 00:06:45;;;;;;;1.20;0.75;;;;;;;7.36;72.10;94419.53;4166297;28;20049;-67
2023/12/15 00:08:46;;;;;;;1.70;0.85;;;;;;;7.37;71.96;94420.34;4168890;28;20041;-68
2023/12/15 00:10:48;;;;;;;1.23;0.75;;;;;;;7.34;71.94;94423.25;4163591;28;20068;-67
2023/12/15 00:12:50;;;;;;;0.77;0.60;;;;;;;7.34;71.32;94424.06;4172609;28;20049;-66
2023/12/15 00:14:52;;;;;;;0.98;0.50;;;;;;;7.33;71.30;94426.81;4163340;28;20120;-68
2023/12/15 00:16:54;;;;;;;0.98;0.60;;;;;;;7.36;71.37;94421.34;4169374;28;20104;-68
2023/12/15 00:18:56;;;;;;;0.60;0.60;;;;;;;7.34;70.99;94423.25;4167594;28;20380;-67
2023/12/15 00:20:59;;;;;;;1.20;0.70;;;;;;;7.36;71.78;94429.16;4173967;28;20130;-67
2023/12/15 00:23:01;;;;;;;0.90;0.60;;;;;;;7.25;71.24;94431.94;4163033;28;20051;-69
2023/12/15 00:25:03;;;;;;;1.33;0.70;;;;;;;7.28;71.86;94431.66;4169182;28;20501;-69
2023/12/15 00:27:05;;;;;;;1.25;0.82;;;;;;;7.28;71.88;94450.72;4173230;28;20057;-69
2023/12/15 00:29:07;;;;;;;2.00;0.80;;;;;;;7.24;71.72;94448.53;4169536;28;20052;-68
2023/12/15 00:31:09;;;;;;;1.38;0.98;;;;;;;7.24;71.61;94448.53;4176792;28;20147;-67
2023/12/15 00:33:10;;;;;;;1.60;0.90;;;;;;;7.20;71.73;94445.41;4167723;28;20061;-68
2023/12/15 00:35:13;;;;;;;1.52;0.80;;;;;;;7.26;71.99;94452.63;4167351;28;20057;-67
2023/12/15 00:37:15;;;;;;;1.40;1.00;;;;;;;7.27;72.22;94437.81;4171214;28;20092;-67
2023/12/15 00:39:17;;;;;;;1.67;1.02;;;;;;;7.38;72.10;94446.28;4166893;28;20148;-67
2023/12/15 00:41:19;;;;;;;1.25;0.80;;;;;;;7.41;71.90;94452.16;4168278;28;20040;-67
2023/12/15 00:43:20;;;;;;;1.05;0.70;;;;;;;7.45;71.95;94456.94;4176620;28;20053;-67
2023/12/15 00:45:22;;;;;;;2.60;0.85;;;;;;;7.48;72.31;94467.06;4177846;28;20052;-67
2023/12/15 00:47:24;;;;;;;1.40;0.93;;;;;;;7.52;71.40;94462.38;4178826;28;20346;-70
2023/12/15 00:49:26;;;;;;;1.40;0.90;;;;;;;7.43;72.03;94461.47;4177093;28;20053;-69
2023/12/15 00:51:28;;;;;;;1.70;1.08;;;;;;;7.46;72.13;94468.97;4177591;28;20068;-68
2023/12/15 00:53:32;;;;;;;1.70;1.00;;;;;;;7.43;72.51;94476.28;4172769;28;20041;-68
2023/12/15 00:55:34;;;;;;;;;;;;;;;7.48;72.43;94480.09;4169821;28;20110;-69
2023/12/15 00:57:36;;;;;;;1.27;0.85;;;;;;;7.48;72.43;94474.06;4164457;28;19975;-68
2023/12/15 00:59:38;;;;;;;1.52;0.90;;;;;;;7.49;72.43;94480.94;4174492;28;20044;-69
2023/12/15 01:01:40;;;;;;;1.98;0.88;;;;;;;7.49;72.40;94473.09;4177463;28;20041;-68
2023/12/15 01:03:42;;;;;;;1.10;0.70;;;;;;;7.42;72.79;94478.09;4177894;28;20044;-67
2023/12/15 01:05:44;;;;;;;0.90;0.65;;;;;;;7.44;72.45;94489.16;4177207;28;20049;-65
2023/12/15 01:07:46;;;;;;;1.20;0.70;;;;;;;7.35;73.22;94483.03;4174022;28;20408;-68
2023/12/15 01:09:50;;;;;;;1.20;0.90;;;;;;;7.32;73.53;94478.13;4167149;28;20052;-68
2023/12/15 01:11:52;;;;;;;1.63;0.90;;;;;;;7.36;72.73;94482.09;4169132;28;20045;-67
2023/12/15 01:13:54;;;;;;;0.73;0.63;;;;;;;7.23;73.01;94484.22;4166257;28;20056;-67
2023/12/15 01:15:55;;;;;;;1.52;0.80;;;;;;;7.30;73.43;94472.22;4174225;28;20145;-67
2023/12/15 01:17:58;;;;;;;2.33;0.95;;;;;;;7.34;73.09;94481.41;4172706;28;20091;-68
2023/12/15 01:20:00;;;;;;;1.40;0.80;;;;;;;7.36;73.84;94487.28;4169527;28;20092;-67
2023/12/15 01:22:02;;;;;;;1.40;1.00;;;;;;;7.33;72.84;94482.34;4178399;28;20072;-68
2023/12/15 01:24:04;;;;;;;1.48;0.90;;;;;;;7.29;73.47;94488.84;4163246;28;20048;-67
2023/12/15 01:26:06;;;;;;;1.30;0.80;;;;;;;7.34;73.73;94485.81;4167133;28;20063;-68
2023/12/15 01:28:07;;;;;;;1.30;0.80;;;;;;;7.33;73.47;94499.78;4176759;28;20087;-66
2023/12/15 01:30:09;;;;;;;2.05;0.80;;;;;;;7.29;73.23;94499.28;4166686;28;20669;-68
2023/12/15 01:32:11;;;;;;;1.42;0.80;;;;;;;7.23;73.99;94496.38;4163880;28;20118;-67
2023/12/15 01:34:13;;;;;;;1.60;1.00;;;;;;;7.18;74.26;94497.66;4168505;28;20393;-67
2023/12/15 01:36:19;;;;;;;1.88;0.90;;;;;;;7.16;74.01;94499.59;4168405;28;20187;-67
2023/12/15 01:38:21;;;;;;;1.50;1.00;;;;;;;7.18;74.10;94496.81;4190075;28;20052;-69
2023/12/15 01:40:22;;;;;;;1.27;0.80;;;;;;;7.17;73.76;94501.22;4164272;28;20083;-69
2023/12/15 01:42:26;;;;;;;1.55;0.82;;;;;;;7.26;73.72;94504.75;4176726;28;20137;-70
2023/12/15 01:44:27;;;;;;;1.10;0.82;;;;;;;7.30;73.77;94506.09;4172362;28;20063;-65
2023/12/15 01:46:30;;;;;;;1.35;0.82;;;;;;;7.24;74.10;94498.03;4185071;28;20162;-68
2023/12/15 01:48:32;;;;;;;1.80;0.88;;;;;;;7.33;73.61;94510.19;4175898;28;20092;-69
2023/12/15 01:50:34;;;;;;;1.52;1.10;;;;;;;7.27;73.78;94510.78;4175242;28;20044;-69
2023/12/15 01:52:36;;;;;;;1.52;1.00;;;;;;;7.26;73.71;94512.56;4169221;28;20056;-69
2023/12/15 01:54:38;;;;;;;1.33;0.80;;;;;;;7.17;74.00;94511.63;4172496;28;20049;-69
2023/12/15 01:56:40;;;;;;;1.90;0.90;;;;;;;7.09;74.81;94511.53;4176501;28;20407;-67
2023/12/15 01:58:42;;;;;;;1.70;0.93;;;;;;;7.07;74.51;94515.25;4176145;28;20045;-67
2023/12/15 02:00:47;;;;;;;1.52;0.95;;;;;;;7.05;74.85;94504.16;4189302;28;20052;-68
2023/12/15 02:02:49;;;;;;;1.95;1.10;;;;;;;7.14;74.96;94511.94;4167841;28;20084;-68
2023/12/15 02:04:51;;;;;;;1.60;1.05;;;;;;;7.17;74.31;94516.03;4164898;28;20498;-68
2023/12/15 02:06:53;;;;;;;1.70;0.82;;;;;;;7.08;74.76;94502.09;4161709;28;20500;-67
2023/12/15 02:08:55;;;;;;;1.77;1.00;;;;;;;7.04;75.12;94511.13;4173776;28;20420;-68
2023/12/15 02:10:57;;;;;;;2.00;1.10;;;;;;;7.07;74.98;94518.66;4172032;28;20041;-67
2023/12/15 02:12:59;;;;;;;2.13;1.08;;;;;;;7.12;75.04;94515.63;4161581;28;20050;-67
2023/12/15 02:15:01;;;;;;;1.40;0.90;;;;;;;7.06;75.09;94519.63;4173130;28;20396;-67
2023/12/15 02:17:03;;;;;;;1.40;0.80;;;;;;;7.10;75.04;94521.00;4174857;28;20052;-68
2023/12/15 02:19:05;;;;;;;1.17;0.88;;;;;;;7.08;75.38;94516.91;4175094;28;20160;-68
2023/12/15 02:21:07;;;;;;;1.70;1.20;;;;;;;7.13;75.46;94525.09;4175496;28;20041;-67
2023/12/15 02:23:09;;;;;;;1.98;1.20;;;;;;;7.07;74.92;94526.47;4166509;28;20091;-68
2023/12/15 02:25:10;;;;;;;1.52;0.98;;;;;;;7.10;75.48;94518.38;4160042;28;20103;-66
2023/12/15 02:27:12;;;;;;;2.28;1.10;;;;;;;7.16;75.28;94530.00;4162607;28;20050;-68
2023/12/15 02:29:14;;;;;;;2.15;1.20;;;;;;;7.24;75.03;94540.53;4164918;28;20072;-67
2023/12/15 02:31:20;;;;;;;1.92;1.30;;;;;;;7.21;75.03;94530.41;4168730;28;20050;-67
2023/12/15 02:33:22;;;;;;;2.05;1.38;;;;;;;7.27;74.46;94542.88;4171462;28;20048;-68
2023/12/15 02:35:24;;;;;;;1.60;1.13;;;;;;;7.26;74.43;94543.00;4170896;28;20056;-68
2023/12/15 02:37:27;;;;;;;1.60;1.10;;;;;;;7.16;75.19;94549.09;4183976;28;20052;-69
2023/12/15 02:39:29;;;;;;;2.10;1.40;;;;;;;7.16;75.36;94543.03;4168764;28;20115;-69
2023/12/15 02:41:31;;;;;;;1.83;1.38;;;;;;;7.09;75.29;94550.59;4175875;28;20041;-66
2023/12/15 02:43:33;;;;;;;1.95;1.20;;;;;;;7.11;75.49;94542.66;4176542;28;20088;-68
2023/12/15 02:45:36;;;;;;;1.70;1.30;;;;;;;7.17;75.58;94547.31;4174794;28;20080;-67
2023/12/15 02:47:38;;;;;;;2.30;1.52;;;;;;;7.23;75.20;94556.31;4168764;28;20049;-67
2023/12/15 02:49:41;;;;;;;2.47;1.63;;;;;;;7.16;75.04;94550.84;4189073;28;20062;-68
2023/12/15 02:51:43;;;;;;;2.47;1.85;;;;;;;7.10;75.02;94546.22;4177499;28;20037;-70
2023/12/15 02:53:45;;;;;;;3.28;2.17;;;;;;;7.16;75.00;94556.91;4180246;28;20481;-68
2023/12/15 02:55:46;;;;;;;2.60;2.00;;;;;;;7.17;75.11;94558.53;4172972;28;20098;-67
2023/12/15 02:57:48;;;;;;;3.03;2.42;;;;;;;7.14;74.57;94552.78;4179348;28;20052;-67
2023/12/15 02:59:50;;;;;;;3.25;2.47;;;;;;;7.06;74.90;94566.53;4180195;28;20057;-67
2023/12/15 03:01:52;;;;;;;3.75;2.95;;;;;;;7.05;75.58;94561.44;4180115;28;20049;-68
2023/12/15 03:03:54;;;;;;;3.13;2.35;;;;;;;6.94;75.45;94565.84;4179071;28;20052;-69
2023/12/15 03:05:56;;;;;;;3.13;2.80;;;;;;;7.02;75.39;94572.16;4176372;28;21111;-68
2023/12/15 03:07:58;;;;;;;3.70;2.88;;;;;;;7.03;75.57;94573.78;4167568;28;20057;-67
2023/12/15 03:10:00;;;;;;;4.80;3.17;;;;;;;7.07;75.76;94565.53;4176297;28;20056;-68
2023/12/15 03:12:02;;;;;;;4.15;3.40;;;;;;;7.06;75.44;94565.72;4179937;28;20045;-70
2023/12/15 03:14:04;;;;;;;4.95;3.92;;;;;;;7.03;75.67;94571.19;4179504;28;20065;-70
2023/12/15 03:16:08;;;;;;;4.78;3.88;;;;;;;7.00;75.23;94574.06;4179393;28;20570;-69
2023/12/15 03:18:10;;;;;;;5.47;4.32;;;;;;;7.13;75.92;94579.81;4179316;28;20061;-67
2023/12/15 03:20:12;;;;;;;5.22;4.25;;;;;;;7.16;75.20;94579.50;4178129;28;20352;-69
2023/12/15 03:22:14;;;;;;;4.47;3.85;;;;;;;7.16;74.89;94584.72;4178801;28;20072;-69
2023/12/15 03:24:16;;;;;;;4.97;4.30;;;;;;;7.17;74.68;94583.78;4177913;28;20063;-69
2023/12/15 03:26:18;;;;;;;4.70;4.20;;;;;;;7.11;74.64;94579.13;4166348;28;20132;-69
2023/12/15 03:28:20;;;;;;;5.65;5.05;;;;;;;7.06;75.10;94582.16;4175070;28;20057;-68
2023/12/15 03:30:22;;;;;;;6.57;5.82;;;;;;;7.08;75.17;94584.63;4165266;28;20059;-69
2023/12/15 03:32:24;;;;;;;6.75;5.78;;;;;;;7.08;75.30;94585.44;4178447;28;20454;-69
2023/12/15 03:34:25;;;;;;;5.82;5.28;;;;;;;7.12;74.69;94585.97;4170449;28;20041;-70
2023/12/15 03:36:27;;;;;;;6.32;5.68;;;;;;;7.16;74.47;94587.31;4178840;28;20067;-69
2023/12/15 03:38:29;;;;;;;6.30;5.65;;;;;;;7.17;74.64;94588.97;4170967;28;20559;-68
2023/12/15 03:40:32;;;;;;;6.90;6.20;;;;;;;7.18;74.47;94590.63;4162001;28;20057;-67
2023/12/15 03:42:34;;;;;;;6.82;6.13;;;;;;;7.26;74.15;94593.34;4174748;28;20132;-65
2023/12/15 03:44:39;;;;;;;7.45;6.32;;;;;;;7.23;74.24;94588.41;4179567;28;20081;-69
2023/12/15 03:46:41;;;;;;;7.63;6.82;;;;;;;7.22;73.86;94591.97;4177788;28;20083;-66
2023/12/15 03:48:43;;;;;;;8.18;6.30;;;;;;;7.15;74.13;94586.50;4176212;28;20053;-68
2023/12/15 03:50:45;;;;;;;8.90;7.05;;;;;;;7.09;73.81;94602.69;4177575;28;20227;-67
2023/12/15 03:52:47;;;;;;;8.10;6.97;;;;;;;7.10;74.46;94600.94;4176126;28;20095;-67
2023/12/15 03:54:49;;;;;;;9.10;7.55;;;;;;;7.11;74.27;94594.75;4173461;28;20053;-68
2023/12/15 03:56:55;;;;;;;8.55;7.65;;;;;;;7.08;74.03;94602.84;4174502;28;20052;-65
2023/12/15 03:58:57;;;;;;;8.82;7.60;;;;;;;7.09;74.45;94601.88;4171641;28;20275;-67
2023/12/15 04:00:59;;;;;;;7.95;7.07;;;;;;;7.09;74.34;94612.31;4176958;28;20491;-66
2023/12/15 04:03:01;;;;;;;9.23;8.20;;;;;;;7.03;74.10;94610.25;4166794;28;20049;-67
2023/12/15 04:05:03;;;;;;;9.30;7.97;;;;;;;7.01;74.74;94607.78;4176363;28;20042;-69
2023/12/15 04:07:05;;;;;;;11.35;8.73;;;;;;;7.03;74.72;94610.25;4176571;28;20110;-68
2023/12/15 04:09:09;;;;;;;9.60;8.60;;;;;;;6.91;74.41;94610.41;4175347;28;20052;-66
2023/12/15 04:11:11;;;;;;;;;;;;;;;6.97;74.49;94615.06;4166773;28;20099;-68
2023/12/15 04:13:13;;;;;;;9.75;8.75;;;;;;;6.93;74.91;94611.09;4173463;28;20292;-68
2023/12/15 04:15:18;;;;;;;10.95;8.88;;;;;;;6.95;74.49;94621.38;4176745;28;20091;-66
2023/12/15 04:17:20;;;;;;;10.05;9.05;;;;;;;7.00;74.91;94607.94;4168703;28;20045;-70
2023/12/15 04:19:22;;;;;;;11.07;9.70;;;;;;;6.95;74.92;94608.34;4175389;28;20060;-67
2023/12/15 04:21:24;;;;;;;11.63;9.50;;;;;;;6.96;75.59;94617.81;4177293;28;20053;-69
2023/12/15 04:23:27;;;;;;;13.60;10.38;;;;;;;6.88;75.50;94615.91;4177128;28;20444;-66
2023/12/15 04:25:29;;;;;;;10.65;9.55;;;;;;;6.92;75.55;94622.44;4171049;28;20045;-68
2023/12/15 04:27:31;;;;;;;10.95;9.77;;;;;;;6.96;75.53;94613.41;4172377;28;20136;-69
2023/12/15 04:29:33;;;;;;;11.25;10.05;;;;;;;7.02;75.39;94619.03;4170945;28;20065;-67
2023/12/15 04:31:35;;;;;;;10.82;9.38;;;;;;;6.94;75.28;94620.53;4174341;28;20044;-69
2023/12/15 04:33:36;;;;;;;10.55;9.45;;;;;;;7.03;75.35;94613.66;4172357;28;20118;-68
2023/12/15 04:35:38;;;;;;;10.90;9.80;;;;;;;7.02;75.13;94608.63;4174839;28;20080;-68
2023/12/15 04:37:46;;;;;;;11.68;10.07;;;;;;;7.03;75.21;94621.47;4173548;28;20508;-68
2023/12/15 04:39:48;;;;;;;10.30;9.30;;;;;;;7.04;74.96;94619.72;4165812;28;20050;-67
2023/12/15 04:41:49;;;;;;;10.68;9.57;;;;;;;7.11;74.86;94626.81;4175619;28;20049;-66
2023/12/15 04:43:51;;;;;;;11.32;9.45;;;;;;;7.15;74.64;94630.78;4174033;28;20268;-67
2023/12/15 04:45:54;;;;;;;9.95;8.95;;;;;;;7.06;74.54;94638.63;4178075;28;20088;-68
2023/12/15 04:47:56;;;;;;;9.80;8.80;;;;;;;7.00;74.64;94645.22;4178931;28;20049;-67
2023/12/15 04:49:58;;;;;;;10.40;9.30;;;;;;;6.95;75.36;94645.63;4176581;28;20124;-68
2023/12/15 04:52:00;;;;;;;10.70;9.60;;;;;;;7.00;74.78;94649.63;4170565;28;20374;-67
2023/12/15 04:54:02;;;;;;;10.30;9.20;;;;;;;6.92;75.25;94651.09;4173874;28;20057;-65
2023/12/15 04:56:04;;;;;;;10.43;8.60;;;;;;;6.86;75.07;94663.84;4173937;28;20404;-68
2023/12/15 04:58:06;;;;;;;10.30;8.57;;;;;;;6.83;75.12;94664.97;4167878;28;20127;-67
2023/12/15 05:00:08;;;;;;;8.80;7.90;;;;;;;6.91;74.75;94656.47;4176976;28;20043;-68
2023/12/15 05:02:10;;;;;;;9.45;8.45;;;;;;;6.92;74.81;94658.91;4177474;28;20095;-69
2023/12/15 05:04:12;;;;;;;9.43;8.38;;;;;;;6.97;75.11;94661.13;4175711;28;20057;-70
2023/12/15 05:06:21;;;;;;;9.80;8.80;;;;;;;7.02;74.96;94655.50;4174906;28;20915;-70
2023/12/15 05:08:22;;;;;;;9.63;8.32;;;;;;;7.02;74.49;94656.31;4168042;28;20049;-69
2023/12/15 05:10:24;;;;;;;9.32;8.35;;;;;;;7.09;74.45;94665.22;4170961;28;20110;-69
2023/12/15 05:12:26;;;;;;;9.82;8.15;;;;;;;7.11;73.62;94654.66;4168711;28;20051;-69
2023/12/15 05:14:28;;;;;;;10.10;8.63;;;;;;;7.11;73.87;94665.91;4172402;28;20052;-70
2023/12/15 05:16:30;;;;;;;9.98;8.98;;;;;;;7.09;73.46;94669.59;4171656;28;20053;-69
2023/12/15 05:18:32;;;;;;;10.30;9.15;;;;;;;7.03;74.30;94657.94;4177436;28;20076;-70
2023/12/15 05:20:36;;;;;;;9.75;7.95;;;;;;;7.07;73.70;94669.75;4168560;28;20102;-69
2023/12/15 05:22:38;;;;;;;9.38;8.32;;;;;;;7.01;73.38;94667.69;4168407;28;20049;-71
2023/12/15 05:24:40;;;;;;;8.63;7.72;;;;;;;7.01;73.68;94679.88;4169847;28;20152;-69
2023/12/15 05:26:42;;;;;;;9.10;7.88;;;;;;;7.07;73.64;94676.75;4172171;28;20049;-70
2023/12/15 05:28:44;;;;;;;8.57;7.28;;;;;;;7.03;73.53;94680.56;4167127;28;20083;-69
2023/12/15 05:30:46;;;;;;;9.93;8.68;;;;;;;7.05;73.57;94683.88;4174601;28;20045;-71
2023/12/15 05:32:48;;;;;;;10.65;8.32;;;;;;;7.05;73.21;94687.28;4173127;28;20071;-72
2023/12/15 05:34:50;;;;;;;8.88;7.90;;;;;;;7.04;73.49;94688.25;4172464;28;20095;-71
2023/12/15 05:36:52;;;;;;;9.10;8.18;;;;;;;7.02;73.12;94694.56;4173135;28;20429;-70
2023/12/15 05:38:54;;;;;;;8.73;7.82;;;;;;;7.03;73.65;94702.22;4177469;28;20068;-69
2023/12/15 05:40:55;;;;;;;10.75;8.13;;;;;;;7.03;73.55;94704.03;4169109;28;20080;-69
2023/12/15 05:42:57;;;;;;;9.93;8.40;;;;;;;7.05;73.43;94709.91;4177178;28;20045;-70
2023/12/15 05:44:59;;;;;;;10.25;8.23;;;;;;;7.11;72.99;94712.78;4177854;28;20508;-71
2023/12/15 05:47:01;;;;;;;8.45;7.55;;;;;;;7.15;73.09;94706.34;4175583;28;20152;-68
2023/12/15 05:49:03;;;;;;;9.43;8.05;;;;;;;7.12;72.66;94716.22;4175028;28;20046;-71
2023/12/15 05:51:07;;;;;;;8.77;7.65;;;;;;;7.04;73.02;94713.50;4177907;28;20165;-69
2023/12/15 05:53:08;;;;;;;8.90;7.88;;;;;;;6.97;72.88;94714.03;4174721;28;20663;-70
2023/12/15 05:55:10;;;;;;;8.75;7.65;;;;;;;6.82;72.75;94720.59;4175697;28;20408;-70
2023/12/15 05:57:12;;;;;;;9.77;8.30;;;;;;;6.86;73.15;94711.56;4174725;28;20048;-69
2023/12/15 05:59:15;;;;;;;11.02;8.50;;;;;;;6.93;72.85;94720.47;4174529;28;20052;-70
2023/12/15 06:01:17;;;;;;;8.88;7.90;;;;;;;7.01;73.22;94714.56;4170278;28;20110;-70
2023/12/15 06:03:19;;;;;;;11.00;8.90;;;;;;;7.04;72.91;94729.13;4168568;28;20049;-70
2023/12/15 06:05:20;;;;;;;9.55;8.40;;;;;;;6.98;72.69;94720.88;4174109;28;20136;-70
2023/12/15 06:07:22;;;;;;;10.73;8.75;;;;;;;7.04;72.77;94729.13;4169635;28;20057;-69
2023/12/15 06:09:25;;;;;;;9.93;8.50;;;;;;;7.08;72.51;94726.09;4159328;28;20057;-69
2023/12/15 06:11:27;;;;;;;9.85;8.45;;;;;;;7.09;72.73;94719.09;4163133;28;20103;-70
2023/12/15 06:13:29;;;;;;;9.43;8.43;;;;;;;7.04;71.98;94729.13;4172506;28;20432;-70
2023/12/15 06:15:31;;;;;;;10.65;8.77;;;;;;;7.01;72.43;94734.59;4173535;28;20385;-70
2023/12/15 06:17:32;;;;;;;10.27;8.85;;;;;;;6.99;72.53;94732.13;4173178;28;20054;-69
2023/12/15 06:19:39;;;;;;;9.73;8.70;;;;;;;7.03;72.32;94732.66;4174481;28;20057;-70
2023/12/15 06:21:41;;;;;;;9.90;8.88;;;;;;;7.02;72.51;94737.06;4168933;28;20051;-71
2023/12/15 06:23:43;;;;;;;9.85;8.85;;;;;;;6.96;72.52;94729.78;4179209;28;20111;-69
2023/12/15 06:25:45;;;;;;;9.65;8.60;;;;;;;7.01;72.56;94745.00;4171558;28;20144;-69
2023/12/15 06:27:47;;;;;;;13.02;9.40;;;;;;;7.07;73.13;94744.47;4181037;28;20060;-70
2023/12/15 06:29:48;;;;;;;11.52;10.32;;;;;;;7.06;72.54;94742.84;4165881;28;20052;-70
2023/12/15 06:31:50;;;;;;;12.48;10.93;;;;;;;7.08;73.00;94746.94;4176821;28;20412;-69
2023/12/15 06:33:52;;;;;;;11.73;10.13;;;;;;;7.12;73.00;94757.88;4178414;28;20456;-70
2023/12/15 06:35:54;;;;;;;11.88;10.60;;;;;;;7.11;72.73;94753.66;4178506;28;20057;-71
2023/12/15 06:37:55;;;;;;;13.02;10.88;;;;;;;7.13;73.52;94754.34;4177117;28;20049;-69
2023/12/15 06:39:57;;;;;;;11.40;10.20;;;;;;;7.14;73.04;94750.75;4174905;28;20049;-70
2023/12/15 06:42:02;;;;;;;11.63;10.15;;;;;;;7.06;73.46;94759.28;4180649;28;20079;-71
2023/12/15 06:44:06;;;;;;;11.90;10.60;;;;;;;7.07;73.54;94762.69;4178528;28;20478;-71
2023/12/15 06:46:08;;;;;;;12.18;10.50;;;;;;;7.02;73.56;94772.72;4170190;28;20064;-69
2023/12/15 06:48:10;;;;;;;13.30;11.63;;;;;;;7.00;74.08;94775.44;4178630;28;20358;-70
2023/12/15 06:50:12;;;;;;;12.77;11.13;;;;;;;6.83;74.59;94766.50;4177959;28;20534;-70
2023/12/15 06:52:15;;;;;;;12.98;11.40;;;;;;;6.88;74.73;94772.16;4179775;28;20055;-71
2023/12/15 06:54:17;;;;;;;14.45;11.52;;;;;;;6.92;74.86;94789.13;4176643;28;20059;-70
2023/12/15 06:56:18;;;;;;;13.35;11.05;;;;;;;6.92;74.55;94776.09;4179259;28;20077;-71
2023/12/15 06:58:20;;;;;;;13.77;12.23;;;;;;;6.96;74.77;94784.47;4178567;28;20130;-71
2023/12/15 07:00:22;;;;;;;14.07;11.63;;;;;;;6.93;74.99;94784.75;4181153;28;20056;-70
2023/12/15 07:02:24;;;;;;;13.52;11.10;;;;;;;6.93;75.30;94788.19;4190736;28;20498;-70
2023/12/15 07:04:26;;;;;;;15.02;12.88;;;;;;;6.90;74.86;94793.66;4166519;28;20100;-70
2023/12/15 07:06:27;;;;;;;13.15;11.75;;;;;;;6.92;74.95;94799.53;4176861;28;20053;-71
2023/12/15 07:08:29;;;;;;;13.82;11.98;;;;;;;6.91;75.02;94807.50;4162512;28;20059;-71
2023/12/15 07:10:32;;;;;;;12.80;11.50;;;;;;;6.93;75.15;94801.22;4173889;28;20091;-70
2023/12/15 07:12:34;;;;;;;15.13;11.63;;;;;;;6.88;75.45;94798.19;4168395;28;20045;-69
2023/12/15 07:14:36;;;;;;;13.75;12.23;;;;;;;6.97;75.74;94817.41;4178844;28;20055;-68
2023/12/15 07:16:37;;;;;;;14.68;12.20;;;;;;;6.98;75.78;94817.25;4176088;28;20059;-72
2023/12/15 07:18:39;;;;;;;13.05;10.90;;;;;;;6.99;75.31;94805.06;4175774;28;20071;-69
2023/12/15 07:20:41;;;;;;;12.77;11.15;;;;;;;7.02;75.26;94809.19;4176029;28;20099;-69
2023/12/15 07:22:43;;;;;;;13.20;11.02;;;;;;;6.98;75.10;94811.22;4180225;28;20069;-71
2023/12/15 07:24:45;;;;;;;13.48;12.07;;;;;;;6.93;74.91;94809.03;4173977;28;20464;-73
2023/12/15 07:26:47;;;;;;;12.27;10.98;;;;;;;7.00;75.51;94811.09;4175162;28;20049;-69
2023/12/15 07:28:49;;;;;;;15.15;11.95;;;;;;;6.95;75.20;94809.72;4170566;28;20452;-70
2023/12/15 07:30:50;;;;;;;16.38;12.27;;;;;;;7.00;75.33;94811.09;4176845;28;20049;-70
2023/12/15 07:32:52;;;;;;;17.98;12.32;;;;;;;7.00;74.90;94816.31;4173411;28;20115;-71
2023/12/15 07:34:54;;;;;;;12.63;10.80;;;;;;;6.97;75.05;94820.81;4169226;28;20045;-71
2023/12/15 07:36:56;;;;;;;13.32;11.82;;;;;;;6.91;74.59;94821.34;4180400;28;20049;-71
2023/12/15 07:38:58;;;;;;;13.40;12.00;;;;;;;6.94;75.42;94828.06;4180550;28;20056;-72
2023/12/15 07:40:59;;;;;;;14.77;12.77;;;;;;;7.00;75.50;94824.94;4177762;28;20136;-70
2023/12/15 07:43:02;;;;;;;14.27;12.15;;;;;;;7.03;75.17;94835.06;4178654;28;20037;-70
2023/12/15 07:45:04;;;;;;;17.50;12.65;;;;;;;7.02;75.56;94830.84;4178291;28;20049;-71
2023/12/15 07:47:06;;;;;;;16.17;13.25;;;;;;;6.95;75.81;94846.19;4168256;28;20057;-70
2023/12/15 07:49:09;;;;;;;13.80;11.43;;;;;;;6.94;76.18;94844.50;4166722;28;20049;-71
2023/12/15 07:51:20;;;;;;;14.05;12.57;;;;;;;6.96;75.67;94845.19;4179153;28;20103;-74
2023/12/15 07:53:22;;;;;;;14.00;12.27;;;;;;;6.92;75.86;94850.81;4178574;28;20070;-70
2023/12/15 07:55:23;;;;;;;16.85;12.60;;;;;;;6.90;76.03;94844.91;4165635;28;20144;-69
2023/12/15 07:57:25;;;;;;;14.15;12.65;;;;;;;6.87;76.56;94853.81;4163304;28;20576;-70
2023/12/15 07:59:27;;;;;;;14.60;12.82;;;;;;;6.88;76.43;94849.44;4184354;28;20048;-70
2023/12/15 08:01:29;;;;;;;15.48;12.90;;;;;;;6.98;76.01;94850.28;4172776;28;20439;-70
2023/12/15 08:03:31;;;;;;;14.77;12.60;;;;;;;6.97;75.61;94859.88;4194794;28;20044;-71
2023/12/15 08:05:33;;;;;;;15.57;13.45;;;;;;;7.01;76.17;94870.84;4175552;28;20056;-71
2023/12/15 08:07:35;;;;;;;15.90;13.30;;;;;;;6.97;76.32;94866.88;4177347;28;20044;-71
2023/12/15 08:09:37;;;;;;;14.95;13.27;;;;;;;7.07;75.78;94872.09;4176413;28;20053;-71
2023/12/15 08:11:39;;;;;;;14.52;12.90;;;;;;;7.06;75.88;94884.31;4176667;28;20045;-68
2023/12/15 08:13:41;;;;;;;15.82;13.38;;;;;;;7.08;76.06;94886.78;4176831;28;20429;-70
2023/12/15 08:15:42;;;;;;;14.23;12.68;;;;;;;7.10;75.96;94890.91;4165778;28;20051;-72
2023/12/15 08:17:44;;;;;;;13.50;12.10;;;;;;;7.12;76.00;94895.97;4172864;28;20079;-69
2023/12/15 08:19:46;;;;;;;15.32;12.82;;;;;;;7.07;75.83;94891.16;4178040;28;20140;-71
2023/12/15 08:21:48;;;;;;;14.52;12.73;;;;;;;7.11;75.81;94892.53;4167013;28;20041;-70
2023/12/15 08:23:51;;;;;;;17.95;14.80;;;;;;;7.13;75.96;94882.81;4170296;28;20147;-70
2023/12/15 08:25:53;;;;;;;13.90;12.40;;;;;;;7.15;75.60;94893.94;4169501;28;20099;-70
2023/12/15 08:27:55;;;;;;;14.90;12.35;;;;;;;7.21;75.55;94891.78;4169255;28;20095;-72
2023/12/15 08:29:57;;;;;;;14.38;12.90;;;;;;;7.21;74.77;94876.13;4177366;28;20132;-69
2023/12/15 08:31:59;;;;;;;14.93;13.10;;;;;;;7.25;75.37;94895.72;4175501;28;20049;-69
2023/12/15 08:34:00;;;;;;;18.58;13.02;;;;;;;7.28;74.50;94896.28;4176968;28;20045;-71
2023/12/15 08:36:02;;;;;;;14.38;12.70;;;;;;;7.25;74.29;94898.34;4170564;28;20516;-70
2023/12/15 08:38:04;;;;;;;13.98;11.70;;;;;;;7.17;74.82;94894.63;4173522;28;20056;-70
2023/12/15 08:40:07;;;;;;;13.15;11.68;;;;;;;7.17;74.70;94899.84;4174672;28;20416;-70
2023/12/15 08:42:09;;;;;;;15.48;13.68;;;;;;;7.15;74.71;94890.50;4194672;28;20054;-70
2023/12/15 08:44:11;;;;;;;14.98;12.80;;;;;;;7.24;74.85;94900.13;4174823;28;20046;-70
2023/12/15 08:46:31;;;;;;;13.63;12.18;;;;;;;7.22;74.40;94904.63;4177145;28;20049;-70
2023/12/15 08:48:32;;;;;;;14.50;12.70;;;;;;;7.26;74.68;94895.59;4179141;28;20057;-70
2023/12/15 08:50:34;;;;;;;14.43;12.35;;;;;;;7.26;74.65;94895.59;4176348;28;20056;-70
2023/12/15 08:52:36;;;;;;;14.95;13.35;;;;;;;7.25;74.72;94898.34;4174516;28;20742;-70
2023/12/15 08:54:38;;;;;;;16.30;12.85;;;;;;;7.26;75.17;94905.22;4171418;28;20136;-72
2023/12/15 08:56:40;;;;;;;14.10;12.35;;;;;;;7.27;74.54;94897.25;4168734;28;20135;-71
2023/12/15 08:58:42;;;;;;;14.90;12.45;;;;;;;7.33;74.69;94898.50;4176190;28;20080;-70
2023/12/15 09:00:43;;;;;;;16.25;12.60;;;;;;;7.35;74.35;94902.59;4173669;28;20055;-71
2023/12/15 09:02:45;;;;;;;15.40;13.82;;;;;;;7.29;73.90;94908.38;4166709;28;20184;-71
2023/12/15 09:04:47;;;;;;;15.05;12.25;;;;;;;7.32;73.95;94909.88;4178675;28;20049;-71
2023/12/15 09:07:02;;;;;;;16.63;13.90;;;;;;;7.28;74.21;94898.09;4173260;28;20064;-71
2023/12/15 09:09:04;;;;;;;16.50;12.98;;;;;;;7.24;73.77;94897.50;4175309;28;20470;-70
2023/12/15 09:11:07;;;;;;;15.15;13.55;;;;;;;7.26;74.29;94895.59;4172048;28;20045;-71
2023/12/15 09:13:10;;;;;;;14.77;12.93;;;;;;;7.16;74.49;94902.56;4175045;28;20057;-71
2023/12/15 09:15:12;;;;;;;14.43;12.93;;;;;;;7.15;74.65;94893.94;4167034;28;20056;-70
2023/12/15 09:17:14;;;;;;;16.58;13.32;;;;;;;7.17;74.62;94889.41;4167576;28;20057;-71
2023/12/15 09:19:16;;;;;;;16.10;13.10;;;;;;;7.15;74.24;94890.50;4169594;28;20048;-72
2023/12/15 09:21:18;;;;;;;15.07;12.55;;;;;;;7.17;74.13;94889.41;4167414;28;20385;-71
2023/12/15 09:23:20;;;;;;;14.75;12.60;;;;;;;7.20;74.22;94898.72;4167648;28;20045;-71
2023/12/15 09:25:22;;;;;;;14.10;12.60;;;;;;;7.20;74.30;94887.50;4162823;28;20053;-69
2023/12/15 09:27:24;;;;;;;16.55;14.63;;;;;;;7.30;74.49;94896.16;4164243;28;20528;-71
2023/12/15 09:29:25;;;;;;;13.75;11.85;;;;;;;7.32;73.93;94895.06;4166664;28;20403;-70
2023/12/15 09:31:27;;;;;;;15.48;13.50;;;;;;;7.35;73.17;94896.56;4164601;28;20077;-71
2023/12/15 09:33:29;;;;;;;15.75;13.93;;;;;;;7.41;73.49;94890.00;4175297;28;20049;-71
2023/12/15 09:35:31;;;;;;;16.17;13.02;;;;;;;7.34;72.89;94892.34;4174823;28;20051;-71
2023/12/15 09:37:33;;;;;;;16.75;13.60;;;;;;;7.40;73.81;94891.81;4173522;28;20049;-71